createdAt,value
2018-03-06T00:00:49.854Z,54.05
2018-03-06T00:03:17.901Z,59.78
2018-03-06T00:05:45.555Z,59.53
2018-03-06T00:08:13.250Z,57.72
2018-03-06T00:10:41.182Z,57.47
2018-03-06T00:13:10.172Z,58.87
2018-03-06T00:15:37.818Z,59.67
2018-03-06T00:18:05.491Z,59.30
2018-03-06T00:20:33.913Z,56.70
2018-03-06T00:23:01.604Z,53.70
2018-03-06T00:25:30.019Z,57.70
2018-03-06T00:27:57.726Z,58.87
2018-03-06T00:30:25.405Z,59.13
2018-03-06T00:32:53.053Z,61.90
2018-03-06T00:35:21.993Z,59.42
2018-03-06T00:37:49.665Z,58.70
2018-03-06T00:40:17.345Z,55.33
2018-03-06T00:42:45.152Z,58.67
2018-03-06T00:45:13.267Z,58.65
2018-03-06T00:47:41.510Z,58.17
2018-03-06T00:50:09.910Z,60.85
2018-03-06T00:52:37.530Z,59.63
2018-03-06T00:55:07.198Z,60.12
2018-03-06T00:57:36.000Z,57.92
2018-03-06T01:00:03.778Z,62.22
2018-03-06T01:02:31.424Z,61.47
2018-03-06T01:04:59.109Z,61.95
2018-03-06T01:07:26.734Z,60.28
2018-03-06T01:09:54.736Z,61.15
2018-03-06T01:12:23.161Z,58.95
2018-03-06T01:14:50.918Z,61.10
2018-03-06T01:17:18.579Z,61.97
2018-03-06T01:19:47.172Z,58.97
2018-03-06T01:22:14.822Z,59.63
2018-03-06T01:24:42.435Z,57.80
2018-03-06T01:27:11.458Z,61.53
2018-03-06T01:29:39.803Z,61.03
2018-03-06T01:32:07.488Z,64.28
2018-03-06T01:34:35.132Z,61.17
2018-03-06T01:37:02.902Z,59.92
2018-03-06T01:39:30.591Z,61.22
2018-03-06T01:41:58.232Z,62.42
2018-03-06T01:44:25.890Z,61.40
2018-03-06T01:46:53.493Z,59.70
2018-03-06T01:49:21.118Z,60.12
2018-03-06T01:51:58.658Z,61.58
2018-03-06T01:54:26.256Z,62.72
2018-03-06T01:56:54.175Z,63.47
2018-03-06T01:59:21.797Z,59.72
2018-03-06T02:01:49.412Z,67.53
2018-03-06T02:04:17.035Z,61.47
2018-03-06T02:06:45.406Z,61.88
2018-03-06T02:09:13.752Z,59.25
2018-03-06T02:11:41.379Z,60.63
2018-03-06T02:14:10.057Z,65.43
2018-03-06T02:16:38.903Z,61.75
2018-03-06T02:19:06.484Z,62.08
2018-03-06T02:21:35.810Z,59.10
2018-03-06T02:24:03.412Z,65.05
2018-03-06T02:26:31.072Z,63.13
2018-03-06T02:28:58.681Z,63.83
2018-03-06T02:31:27.062Z,65.28
2018-03-06T02:33:54.688Z,64.45
2018-03-06T02:36:23.105Z,63.83
2018-03-06T02:38:50.709Z,63.65
2018-03-06T02:41:18.308Z,61.92
2018-03-06T02:43:45.951Z,62.67
2018-03-06T02:46:13.557Z,62.25
2018-03-06T02:48:42.097Z,63.50
2018-03-06T02:51:10.032Z,65.62
2018-03-06T02:53:37.673Z,65.30
2018-03-06T02:56:05.292Z,65.12
2018-03-06T02:58:33.651Z,64.60
2018-03-06T03:01:01.260Z,62.38
2018-03-06T03:03:29.824Z,61.47
2018-03-06T03:05:57.417Z,61.30
2018-03-06T03:08:25.087Z,60.95
2018-03-06T03:10:52.677Z,63.08
2018-03-06T03:13:21.053Z,61.75
2018-03-06T03:15:48.629Z,64.80
2018-03-06T03:18:16.236Z,61.47
2018-03-06T03:20:44.591Z,63.33
2018-03-06T03:23:12.273Z,62.70
2018-03-06T03:25:40.548Z,63.55
2018-03-06T03:28:08.189Z,60.67
2018-03-06T03:30:35.774Z,63.35
2018-03-06T03:33:03.365Z,66.22
2018-03-06T03:35:30.955Z,62.65
2018-03-06T03:37:58.574Z,66.78
2018-03-06T03:40:26.143Z,61.25
2018-03-06T03:42:53.878Z,63.20
2018-03-06T03:45:21.482Z,62.60
2018-03-06T03:47:49.111Z,60.92
2018-03-06T03:50:16.703Z,60.83
2018-03-06T03:52:44.319Z,63.92
2018-03-06T03:55:11.901Z,56.70
2018-03-06T03:57:40.103Z,63.17
2018-03-06T04:00:07.684Z,61.55
2018-03-06T04:02:35.301Z,62.05
2018-03-06T04:05:02.908Z,60.83
2018-03-06T04:07:30.522Z,63.63
2018-03-06T04:09:58.112Z,63.58
2018-03-06T04:12:26.604Z,65.25
2018-03-06T04:14:54.185Z,60.42
2018-03-06T04:17:21.801Z,61.78
2018-03-06T04:19:49.427Z,62.90
2018-03-06T04:22:17.064Z,63.05
2018-03-06T04:24:44.651Z,64.15
2018-03-06T04:27:12.306Z,61.85
2018-03-06T04:29:40.578Z,62.55
2018-03-06T04:32:09.999Z,61.03
2018-03-06T04:34:37.598Z,60.38
2018-03-06T04:37:06.041Z,62.78
2018-03-06T04:39:34.381Z,61.88
2018-03-06T04:42:02.026Z,64.70
2018-03-06T04:44:29.636Z,63.60
2018-03-06T04:46:57.274Z,67.95
2018-03-06T04:49:24.864Z,66.15
2018-03-06T04:51:52.631Z,65.03
2018-03-06T04:54:21.012Z,63.90
2018-03-06T04:56:49.385Z,61.58
2018-03-06T04:59:16.970Z,61.90
2018-03-06T05:01:44.594Z,66.28
2018-03-06T05:04:12.204Z,62.55
2018-03-06T05:06:40.814Z,63.55
2018-03-06T05:09:09.955Z,60.30
2018-03-06T05:11:37.554Z,63.10
2018-03-06T05:14:06.004Z,61.97
2018-03-06T05:16:33.685Z,63.08
2018-03-06T05:19:01.284Z,62.17
2018-03-06T05:21:28.878Z,63.72
2018-03-06T05:23:56.499Z,60.08
2018-03-06T05:26:24.085Z,68.22
2018-03-06T05:28:51.778Z,64.25
2018-03-06T05:31:19.542Z,62.90
2018-03-06T05:33:47.888Z,66.78
2018-03-06T05:36:16.245Z,64.00
2018-03-06T05:38:44.643Z,65.35
2018-03-06T05:41:12.340Z,62.55
2018-03-06T05:43:41.058Z,64.20
2018-03-06T05:46:09.772Z,61.97
2018-03-06T05:48:38.132Z,62.75
2018-03-06T05:51:06.525Z,63.08
2018-03-06T05:53:34.178Z,65.03
2018-03-06T05:56:01.787Z,67.30
2018-03-06T05:58:29.355Z,65.07
2018-03-06T06:00:57.733Z,62.80
2018-03-06T06:03:25.332Z,63.20
2018-03-06T06:05:52.993Z,64.82
2018-03-06T06:08:20.656Z,63.17
2018-03-06T06:10:48.381Z,69.60
2018-03-06T06:13:16.738Z,64.00
2018-03-06T06:15:44.421Z,66.10
2018-03-06T06:18:11.995Z,65.70
2018-03-06T06:20:40.002Z,68.30
2018-03-06T06:23:09.034Z,65.68
2018-03-06T06:25:36.638Z,64.53
2018-03-06T06:28:04.248Z,66.03
2018-03-06T06:30:31.963Z,66.25
2018-03-06T06:33:00.464Z,64.35
2018-03-06T06:38:12.937Z,65.95
2018-03-06T06:40:41.848Z,68.18
2018-03-06T06:43:10.109Z,65.37
2018-03-06T06:45:38.073Z,66.00
2018-03-06T06:48:05.703Z,65.65
2018-03-06T06:50:33.371Z,64.72
2018-03-06T06:53:00.963Z,66.80
2018-03-06T06:55:28.586Z,64.90
2018-03-06T06:57:56.954Z,66.47
2018-03-06T07:00:25.292Z,61.53
2018-03-06T07:02:52.901Z,63.27
2018-03-06T07:05:20.480Z,64.78
2018-03-06T07:07:48.866Z,63.63
2018-03-06T07:10:17.266Z,65.60
2018-03-06T07:12:44.852Z,62.20
2018-03-06T07:15:12.539Z,58.37
2018-03-06T07:17:41.089Z,64.57
2018-03-06T07:20:09.121Z,61.80
2018-03-06T07:22:37.617Z,62.97
2018-03-06T07:25:05.197Z,62.13
2018-03-06T07:27:34.260Z,63.40
2018-03-06T07:30:02.798Z,62.37
2018-03-06T07:35:06.829Z,63.30
2018-03-06T07:37:34.532Z,63.20
2018-03-06T07:40:02.175Z,62.23
2018-03-06T07:42:29.778Z,61.30
2018-03-06T07:44:57.666Z,65.67
2018-03-06T07:47:25.278Z,66.43
2018-03-06T07:49:52.972Z,65.17
2018-03-06T07:52:21.317Z,65.70
2018-03-06T07:54:49.279Z,63.77
2018-03-06T07:57:16.931Z,61.00
2018-03-06T07:59:45.284Z,64.43
2018-03-06T08:02:12.877Z,64.90
2018-03-06T08:04:41.708Z,63.47
2018-03-06T08:07:10.527Z,67.93
2018-03-06T08:09:39.404Z,69.80
2018-03-06T08:12:06.997Z,70.90
2018-03-06T08:14:35.355Z,67.67
2018-03-06T08:17:03.793Z,68.90
2018-03-06T08:19:31.404Z,66.20
2018-03-06T08:21:59.760Z,66.83
2018-03-06T08:24:27.358Z,65.90
2018-03-06T08:26:55.691Z,69.23
2018-03-06T08:29:23.412Z,67.10
2018-03-06T08:31:51.002Z,66.70
2018-03-06T08:34:18.614Z,65.47
2018-03-06T08:36:46.180Z,68.77
2018-03-06T08:39:13.941Z,66.63
2018-03-06T08:41:41.520Z,65.10
2018-03-06T08:44:09.864Z,67.20
2018-03-06T08:46:37.426Z,67.53
2018-03-06T08:49:05.406Z,68.77
2018-03-06T08:51:33.795Z,65.50
2018-03-06T08:54:02.638Z,64.97
2018-03-06T08:56:31.843Z,69.67
2018-03-06T08:58:59.462Z,71.30
2018-03-06T09:01:27.071Z,66.00
2018-03-06T09:03:54.726Z,67.70
2018-03-06T09:06:23.212Z,68.90
2018-03-06T09:08:50.914Z,70.17
2018-03-06T09:11:20.208Z,73.83
2018-03-06T09:13:48.743Z,73.77
2018-03-06T09:16:16.402Z,69.30
2018-03-06T09:18:43.982Z,71.10
2018-03-06T09:21:11.614Z,67.87
2018-03-06T09:23:40.388Z,69.80
2018-03-06T09:26:07.971Z,71.10
2018-03-06T09:28:35.530Z,68.90
2018-03-06T09:31:03.490Z,69.37
2018-03-06T09:33:31.103Z,70.40
2018-03-06T09:35:58.687Z,70.53
2018-03-06T09:38:26.334Z,68.03
2018-03-06T09:40:53.954Z,70.97
2018-03-06T09:43:22.324Z,73.93
2018-03-06T09:45:49.947Z,71.03
2018-03-06T09:48:17.539Z,72.27
2018-03-06T09:50:45.137Z,70.37
2018-03-06T09:53:12.741Z,75.07
2018-03-06T09:55:41.234Z,64.43
2018-03-06T09:58:09.799Z,69.37
2018-03-06T10:00:37.492Z,69.33
2018-03-06T10:03:05.820Z,69.67
2018-03-06T10:05:33.482Z,67.97
2018-03-06T10:08:01.125Z,70.97
2018-03-06T10:10:29.502Z,71.03
2018-03-06T10:12:58.060Z,70.53
2018-03-06T10:15:27.334Z,68.17
2018-03-06T10:17:54.898Z,70.60
2018-03-06T10:20:24.168Z,73.13
2018-03-06T10:22:52.522Z,72.43
2018-03-06T10:25:20.997Z,74.30
2018-03-06T10:27:48.570Z,71.17
2018-03-06T10:30:16.212Z,72.10
2018-03-06T10:32:44.548Z,75.90
2018-03-06T10:35:12.144Z,73.40
2018-03-06T10:37:42.283Z,74.47
2018-03-06T10:40:11.275Z,71.93
2018-03-06T10:42:39.793Z,74.40
2018-03-06T10:45:08.168Z,76.53
2018-03-06T10:47:35.801Z,69.30
2018-03-06T10:50:04.173Z,72.30
2018-03-06T10:52:31.757Z,68.93
2018-03-06T10:54:59.397Z,72.67
2018-03-06T10:57:26.981Z,76.17
2018-03-06T10:59:54.740Z,72.47
2018-03-06T11:02:28.707Z,70.30
2018-03-06T11:04:56.383Z,73.20
2018-03-06T11:07:23.982Z,75.47
2018-03-06T11:09:51.631Z,70.27
2018-03-06T11:12:19.288Z,73.53
2018-03-06T11:14:46.903Z,72.13
2018-03-06T11:17:14.557Z,74.47
2018-03-06T11:19:42.150Z,71.97
2018-03-06T11:22:10.480Z,71.40
2018-03-06T11:24:38.177Z,72.87
2018-03-06T11:27:05.728Z,69.23
2018-03-06T11:29:33.406Z,72.37
2018-03-06T11:32:00.950Z,75.07
2018-03-06T11:34:28.552Z,73.40
2018-03-06T11:36:56.147Z,74.60
2018-03-06T11:39:24.876Z,74.67
2018-03-06T11:41:52.462Z,76.53
2018-03-06T11:44:20.232Z,74.20
2018-03-06T11:46:47.847Z,71.60
2018-03-06T11:49:20.295Z,76.60
2018-03-06T11:51:48.672Z,72.60
2018-03-06T11:54:16.684Z,73.40
2018-03-06T11:56:44.339Z,73.80
2018-03-06T12:01:51.729Z,76.00
2018-03-06T12:04:19.473Z,76.00
2018-03-06T12:06:47.177Z,80.47
2018-03-06T12:09:15.536Z,75.17
2018-03-06T12:11:43.985Z,77.63
2018-03-06T12:14:11.599Z,77.00
2018-03-06T12:16:39.557Z,77.20
2018-03-06T12:19:07.480Z,82.67
2018-03-06T12:21:35.038Z,76.03
2018-03-06T12:24:03.035Z,80.70
2018-03-06T12:26:30.660Z,81.47
2018-03-06T12:28:58.998Z,79.87
2018-03-06T12:31:26.679Z,83.40
2018-03-06T12:33:54.275Z,81.40
2018-03-06T12:36:21.874Z,84.87
2018-03-06T12:38:49.500Z,80.47
2018-03-06T12:41:17.892Z,83.10
2018-03-06T12:43:45.461Z,81.50
2018-03-06T12:46:16.013Z,82.17
2018-03-06T12:48:44.351Z,83.37
2018-03-06T12:51:12.873Z,82.17
2018-03-06T12:53:41.440Z,83.97
2018-03-06T12:56:09.798Z,87.13
2018-03-06T12:58:37.487Z,80.20
2018-03-06T13:01:05.233Z,87.87
2018-03-06T13:03:32.836Z,81.57
2018-03-06T13:06:00.427Z,81.00
2018-03-06T13:08:28.380Z,81.33
2018-03-06T13:10:56.733Z,79.47
2018-03-06T13:13:24.366Z,76.90
2018-03-06T13:15:51.999Z,77.70
2018-03-06T13:18:19.660Z,79.17
2018-03-06T13:20:47.233Z,79.13
2018-03-06T13:23:14.976Z,77.97
2018-03-06T13:25:43.348Z,78.90
2018-03-06T13:28:10.946Z,80.73
2018-03-06T13:30:41.561Z,75.07
2018-03-06T13:33:10.676Z,79.77
2018-03-06T13:35:40.042Z,78.00
2018-03-06T13:38:07.655Z,79.30
2018-03-06T13:40:35.212Z,79.00
2018-03-06T13:43:02.768Z,76.90
2018-03-06T13:45:31.152Z,78.70
2018-03-06T13:47:58.892Z,108.40
2018-03-06T13:50:26.469Z,81.63
2018-03-06T13:52:54.081Z,81.90
2018-03-06T13:55:22.576Z,82.57
2018-03-06T13:57:50.202Z,82.37
2018-03-06T14:00:17.861Z,77.33
2018-03-06T14:02:45.442Z,81.97
2018-03-06T14:05:13.087Z,80.10
2018-03-06T14:07:40.699Z,82.03
2018-03-06T14:10:08.301Z,81.87
2018-03-06T14:12:36.030Z,76.10
2018-03-06T14:15:03.721Z,80.20
2018-03-06T14:17:31.332Z,78.60
2018-03-06T14:19:58.917Z,76.63
2018-03-06T14:22:26.521Z,79.33
2018-03-06T14:24:54.896Z,80.10
2018-03-06T14:27:22.503Z,77.13
2018-03-06T14:29:51.432Z,76.23
2018-03-06T14:32:19.283Z,75.23
2018-03-06T14:34:47.650Z,76.37
2018-03-06T14:37:15.997Z,73.37
2018-03-06T14:39:43.558Z,77.43
2018-03-06T14:42:11.263Z,78.57
2018-03-06T14:44:39.645Z,74.33
2018-03-06T14:47:08.018Z,78.43
2018-03-06T14:49:36.358Z,79.30
2018-03-06T14:52:06.234Z,77.33
2018-03-06T14:54:33.824Z,79.47
2018-03-06T14:57:01.512Z,79.83
2018-03-06T14:59:29.905Z,82.60
2018-03-06T15:01:59.637Z,72.83
2018-03-06T15:04:27.491Z,75.23
2018-03-06T15:06:55.111Z,75.17
2018-03-06T15:09:22.722Z,76.37
2018-03-06T15:11:51.012Z,79.40
2018-03-06T15:14:18.617Z,84.77
2018-03-06T15:16:46.230Z,77.80
2018-03-06T15:19:13.941Z,72.50
2018-03-06T15:21:41.550Z,75.60
2018-03-06T15:24:09.209Z,78.80
2018-03-06T15:26:36.815Z,79.43
2018-03-06T15:29:04.406Z,77.40
2018-03-06T15:31:32.038Z,79.27
2018-03-06T15:34:00.476Z,75.50
2018-03-06T15:36:28.881Z,82.40
2018-03-06T15:38:56.439Z,74.40
2018-03-06T15:41:24.031Z,74.83
2018-03-06T15:43:52.164Z,78.00
2018-03-06T15:46:20.068Z,80.33
2018-03-06T15:48:48.426Z,83.27
2018-03-06T15:51:16.026Z,81.73
2018-03-06T15:53:43.603Z,81.50
2018-03-06T15:56:11.986Z,82.60
2018-03-06T15:58:39.566Z,78.43
2018-03-06T16:01:07.160Z,79.13
2018-03-06T16:03:34.921Z,77.63
2018-03-06T16:06:02.561Z,79.10
2018-03-06T16:08:30.188Z,76.00
2018-03-06T16:10:58.202Z,81.60
2018-03-06T16:13:27.588Z,78.77
2018-03-06T16:15:55.952Z,78.13
2018-03-06T16:18:23.579Z,82.00
2018-03-06T16:20:51.998Z,79.00
2018-03-06T16:23:20.224Z,80.70
2018-03-06T16:25:47.818Z,79.23
2018-03-06T16:28:15.396Z,79.50
2018-03-06T16:30:43.024Z,81.50
2018-03-06T16:33:10.594Z,80.87
2018-03-06T16:35:38.320Z,80.57
2018-03-06T16:38:05.889Z,80.10
2018-03-06T16:40:33.491Z,84.13
2018-03-06T16:43:02.993Z,82.20
2018-03-06T16:45:30.712Z,80.47
2018-03-06T16:47:58.316Z,83.53
2018-03-06T16:50:26.018Z,86.83
2018-03-06T16:52:53.605Z,83.10
2018-03-06T16:55:22.113Z,83.43
2018-03-06T16:57:51.626Z,85.20
2018-03-06T17:00:19.259Z,82.50
2018-03-06T17:02:46.861Z,85.73
2018-03-06T17:05:14.468Z,88.13
2018-03-06T17:07:42.038Z,88.57
2018-03-06T17:10:09.675Z,82.87
2018-03-06T17:12:37.257Z,85.00
2018-03-06T17:15:05.178Z,84.43
2018-03-06T17:17:33.942Z,88.93
2018-03-06T17:20:01.581Z,84.97
2018-03-06T17:22:29.984Z,84.13
2018-03-06T17:24:57.625Z,88.43
2018-03-06T17:27:25.207Z,83.97
2018-03-06T17:29:52.794Z,84.20
2018-03-06T17:32:21.043Z,85.23
2018-03-06T17:34:50.452Z,84.67
2018-03-06T17:37:18.462Z,88.10
2018-03-06T17:39:46.962Z,87.87
2018-03-06T17:42:14.638Z,86.70
2018-03-06T17:44:43.218Z,88.40
2018-03-06T17:47:11.576Z,85.40
2018-03-06T17:49:40.046Z,91.93
2018-03-06T17:52:08.393Z,85.80
2018-03-06T17:54:35.960Z,82.67
2018-03-06T17:57:04.422Z,87.53
2018-03-06T17:59:32.092Z,83.10
2018-03-06T18:01:59.852Z,85.17
2018-03-06T18:04:27.498Z,89.10
2018-03-06T18:06:55.109Z,87.37
2018-03-06T18:09:23.330Z,86.23
2018-03-06T18:11:51.767Z,83.87
2018-03-06T18:14:20.541Z,86.80
2018-03-06T18:16:48.121Z,87.47
2018-03-06T18:19:15.735Z,84.37
2018-03-06T18:21:44.142Z,85.80
2018-03-06T18:24:11.813Z,84.73
2018-03-06T18:26:39.453Z,84.13
2018-03-06T18:29:07.020Z,88.50
2018-03-06T18:31:35.373Z,83.20
2018-03-06T18:34:03.204Z,85.03
2018-03-06T18:36:31.015Z,82.13
2018-03-06T18:38:58.666Z,84.20
2018-03-06T18:41:26.660Z,82.63
2018-03-06T18:43:55.503Z,82.90
2018-03-06T18:46:23.103Z,83.30
2018-03-06T18:48:51.104Z,79.17
2018-03-06T18:51:18.945Z,82.77
2018-03-06T18:53:47.295Z,82.50
2018-03-06T18:56:15.008Z,83.10
2018-03-06T18:58:42.607Z,82.97
2018-03-06T19:04:27.780Z,79.07
2018-03-06T19:07:14.097Z,79.77
2018-03-06T19:09:41.714Z,77.50
2018-03-06T19:12:10.116Z,79.63
2018-03-06T19:14:37.702Z,79.23
2018-03-06T19:17:06.260Z,77.53
2018-03-06T19:19:33.958Z,77.50
2018-03-06T19:22:01.608Z,80.57
2018-03-06T19:24:29.209Z,76.67
2018-03-06T19:26:56.820Z,81.43
2018-03-06T19:29:25.410Z,77.90
2018-03-06T19:31:53.030Z,77.80
2018-03-06T19:34:21.349Z,74.03
2018-03-06T19:36:49.026Z,73.07
2018-03-06T19:39:16.592Z,73.50
2018-03-06T19:41:44.986Z,74.60
2018-03-06T19:44:12.706Z,71.13
2018-03-06T19:46:40.589Z,71.77
2018-03-06T19:49:08.956Z,72.10
2018-03-06T19:51:36.563Z,75.67
2018-03-06T19:54:04.727Z,71.67
2018-03-06T19:56:33.313Z,71.63
2018-03-06T19:59:00.925Z,73.37
2018-03-06T20:01:28.564Z,72.83
2018-03-06T20:03:56.931Z,69.17
2018-03-06T20:06:24.660Z,65.77
2018-03-06T20:08:53.053Z,69.87
2018-03-06T20:11:21.270Z,67.53
2018-03-06T20:13:50.322Z,66.07
2018-03-06T20:16:17.935Z,70.07
2018-03-06T20:18:45.519Z,65.33
2018-03-06T20:21:14.193Z,64.27
2018-03-06T20:23:42.567Z,62.97
2018-03-06T20:26:10.980Z,62.77
2018-03-06T20:28:38.595Z,62.43
2018-03-06T20:31:11.828Z,63.30
2018-03-06T20:33:39.436Z,61.73
2018-03-06T20:36:07.049Z,58.00
2018-03-06T20:38:40.337Z,56.30
2018-03-06T20:41:07.981Z,57.43
2018-03-06T20:43:35.539Z,57.03
2018-03-06T20:46:08.734Z,53.37
2018-03-06T20:48:37.218Z,55.50
2018-03-06T20:51:04.895Z,61.37
2018-03-06T20:53:38.011Z,57.37
2018-03-06T20:56:10.568Z,59.40
2018-03-06T20:58:38.204Z,60.63
2018-03-06T21:01:06.188Z,59.37
2018-03-06T21:03:33.759Z,56.70
2018-03-06T21:06:02.333Z,61.37
2018-03-06T21:08:29.934Z,59.10
2018-03-06T21:10:57.539Z,56.80
2018-03-06T21:13:26.086Z,59.90
2018-03-06T21:15:54.042Z,57.47
2018-03-06T21:18:23.882Z,57.23
2018-03-06T21:20:52.547Z,55.80
2018-03-06T21:23:22.055Z,56.83
2018-03-06T21:25:50.550Z,57.33
2018-03-06T21:28:18.164Z,58.30
2018-03-06T21:30:45.783Z,54.43
2018-03-06T21:33:14.973Z,57.87
2018-03-06T21:35:42.985Z,53.67
2018-03-06T21:38:11.339Z,54.03
2018-03-06T21:40:39.096Z,53.43
2018-03-06T21:43:07.092Z,51.30
2018-03-06T21:45:35.986Z,50.40
2018-03-06T21:48:07.040Z,51.13
2018-03-06T21:50:35.427Z,51.90
2018-03-06T21:53:03.019Z,49.30
2018-03-06T21:55:31.417Z,47.40
2018-03-06T22:00:50.221Z,49.27
2018-03-06T22:03:19.106Z,46.30
2018-03-06T22:05:48.646Z,47.70
2018-03-06T22:08:16.651Z,46.70
2018-03-06T22:10:44.981Z,46.00
2018-03-06T22:13:12.563Z,46.03
2018-03-06T22:15:40.996Z,47.87
2018-03-06T22:18:08.631Z,48.73
2018-03-06T22:20:37.017Z,46.97
2018-03-06T22:23:05.358Z,46.63
2018-03-06T22:25:32.925Z,45.27
2018-03-06T22:28:03.136Z,45.93
2018-03-06T22:30:30.711Z,44.20
2018-03-06T22:32:58.273Z,44.60
2018-03-06T22:35:25.915Z,42.73
2018-03-06T22:37:53.491Z,45.23
2018-03-06T22:40:21.836Z,43.40
2018-03-06T22:42:51.055Z,42.50
2018-03-06T22:45:19.309Z,41.33
2018-03-06T22:47:46.872Z,40.90
2018-03-06T22:50:14.516Z,41.07
2018-03-06T22:52:42.144Z,41.70
2018-03-06T22:55:09.750Z,41.07
2018-03-06T22:57:38.098Z,40.47
2018-03-06T23:00:06.611Z,38.57
2018-03-06T23:02:34.234Z,40.70
2018-03-06T23:05:02.620Z,39.10
2018-03-06T23:07:30.217Z,40.50
2018-03-06T23:09:57.775Z,38.10
2018-03-06T23:12:25.345Z,39.07
2018-03-06T23:14:53.695Z,39.30
2018-03-06T23:17:22.158Z,39.50
2018-03-06T23:19:50.147Z,39.60
2018-03-06T23:22:18.469Z,39.53
2018-03-06T23:24:46.190Z,38.60
2018-03-06T23:27:13.770Z,38.07
2018-03-06T23:29:41.440Z,36.83
2018-03-06T23:32:09.023Z,36.27
2018-03-06T23:34:37.336Z,35.40
2018-03-06T23:37:04.913Z,36.73
2018-03-06T23:39:32.482Z,37.83
2018-03-06T23:42:00.860Z,36.70
2018-03-06T23:44:29.167Z,36.60
2018-03-06T23:46:56.756Z,34.67
2018-03-06T23:49:25.116Z,34.60
2018-03-06T23:51:53.476Z,34.93
2018-03-06T23:54:21.112Z,34.77
2018-03-06T23:56:50.229Z,34.77
2018-03-06T23:59:18.292Z,35.97
